KLAS

Mc Carran International Airport

Las Vegas, Nevada, USA
METAR KLAS 230856Z 19005KT 10SM BKN250 17/10 A2996 RMK AO2 SLP130 T01670100 53002
Observed Flight Rules
Oct-23 @ 08:56 UTC (43 minutes ago) Visual Flight Rules
Wind Visibility Clouds
190° at 5 knots 10 miles
  • Broken at 25,000' AGL
Temperatures Readings
Current 17°C / 63°F
Dewpoint 10°C / 50°F
Humidity 64%
Altimeter 29.96" Hg
Pressure 1013 hPa
Elevation 636
METAR KLAS 230856Z 19005KT 10SM BKN250 17/10 A2996 RMK AO2 SLP130 T01670100 53002
Observed Flight Rules
Oct-23 @ 08:56 UTC
(43 minutes ago)
VFR
Wind Visibility
190° at 5 knots 10 miles
Clouds
  • Broken at 25,000' AGL
Temperature Dewpoint
17°C / 63°F 10°C / 50°F
Humidity Altimeter Pressure
64% 29.96" Hg 1013 hPa